Time,TemperatureF,DewpointF,PressureIn,WindDirection,WindDirectionDegrees,WindSpeedMPH,WindSpeedGustMPH,Humidity,HourlyPrecipIn,Conditions,Clouds,dailyrainin,SoftwareType,DateUTC
2013-02-05 00:01:00,21.0,17.0,-100.00,SW,216,4.0,6.0,83,0.00,,,-99.99,,2013-02-05 07:01:00,
2013-02-05 00:11:00,21.0,17.0,-100.00,South,191,5.0,6.0,82,0.00,,,-99.99,,2013-02-05 07:11:00,
2013-02-05 00:22:00,21.0,17.0,-100.00,South,191,5.0,6.0,82,0.00,,,-99.99,,2013-02-05 07:22:00,
2013-02-05 00:42:00,22.0,17.0,-100.00,SSW,210,3.0,4.0,82,0.00,,,-99.99,,2013-02-05 07:42:00,
2013-02-05 00:52:00,22.0,17.0,-100.00,SSW,210,3.0,4.0,82,0.00,,,-99.99,,2013-02-05 07:52:00,
2013-02-05 01:01:00,22.0,17.0,-100.00,SSW,210,3.0,4.0,82,0.00,,,-99.99,,2013-02-05 08:01:00,
2013-02-05 01:11:00,22.0,17.0,-100.00,SSW,203,4.0,4.0,83,0.00,,,-99.99,,2013-02-05 08:11:00,
2013-02-05 01:21:00,22.0,18.0,-100.00,North,349,0.0,0.0,83,0.00,,,-99.99,,2013-02-05 08:21:00,
2013-02-05 01:31:00,22.0,18.0,-100.00,North,349,0.0,0.0,83,0.00,,,-99.99,,2013-02-05 08:31:00,
2013-02-05 01:42:00,22.0,18.0,-100.00,East,83,3.0,4.0,83,0.00,,,-99.99,,2013-02-05 08:42:00,
2013-02-05 01:52:00,23.0,18.0,-100.00,SE,145,4.0,5.0,82,0.00,,,-99.99,,2013-02-05 08:52:00,
2013-02-05 02:02:00,23.0,18.0,-100.00,SE,145,4.0,5.0,82,0.00,,,-99.99,,2013-02-05 09:02:00,
2013-02-05 02:11:00,23.0,18.0,-100.00,SE,145,4.0,5.0,82,0.00,,,-99.99,,2013-02-05 09:11:00,
2013-02-05 02:21:00,24.0,19.0,-100.00,SSE,148,5.0,6.0,82,0.00,,,-99.99,,2013-02-05 09:21:00,
2013-02-05 02:31:00,24.0,19.0,-100.00,SSE,148,5.0,6.0,82,0.00,,,-99.99,,2013-02-05 09:31:00,
2013-02-05 02:42:00,24.0,19.0,-100.00,South,172,5.0,6.0,81,0.00,,,-99.99,,2013-02-05 09:42:00,
2013-02-05 02:52:00,24.0,19.0,-100.00,SSE,167,6.0,7.0,81,0.00,,,-99.99,,2013-02-05 09:52:00,
2013-02-05 03:01:00,24.0,19.0,-100.00,SSE,167,6.0,7.0,81,0.00,,,-99.99,,2013-02-05 10:01:00,
2013-02-05 03:11:00,24.0,19.0,-100.00,SSE,167,6.0,7.0,81,0.00,,,-99.99,,2013-02-05 10:11:00,
2013-02-05 03:21:00,24.0,18.0,-100.00,South,176,9.0,10.0,81,0.00,,,-99.99,,2013-02-05 10:21:00,
2013-02-05 03:31:00,24.0,18.0,-100.00,South,176,9.0,10.0,81,0.00,,,-99.99,,2013-02-05 10:31:00,
2013-02-05 03:42:00,24.0,19.0,-100.00,South,182,9.0,11.0,81,0.00,,,-99.99,,2013-02-05 10:42:00,
2013-02-05 03:52:00,24.0,19.0,-100.00,South,181,6.0,9.0,82,0.00,,,-99.99,,2013-02-05 10:52:00,
2013-02-05 04:01:00,24.0,19.0,-100.00,South,181,6.0,9.0,82,0.00,,,-99.99,,2013-02-05 11:01:00,
2013-02-05 04:11:00,24.0,19.0,-100.00,SSE,148,7.0,8.0,81,0.00,,,-99.99,,2013-02-05 11:11:00,
2013-02-05 04:22:00,24.0,19.0,-100.00,SSE,148,7.0,8.0,81,0.00,,,-99.99,,2013-02-05 11:22:00,
2013-02-05 04:32:00,24.0,19.0,-100.00,SSE,148,7.0,8.0,81,0.00,,,-99.99,,2013-02-05 11:32:00,
2013-02-05 04:41:00,24.0,19.0,-100.00,SE,124,8.0,9.0,82,0.00,,,-99.99,,2013-02-05 11:41:00,
2013-02-05 04:52:00,25.0,19.0,-100.00,SE,134,4.0,6.0,80,0.00,,,-99.99,,2013-02-05 11:52:00,
2013-02-05 05:01:00,25.0,19.0,-100.00,SE,134,4.0,6.0,80,0.00,,,-99.99,,2013-02-05 12:01:00,
2013-02-05 05:12:00,25.0,19.0,-100.00,South,171,4.0,4.0,79,0.00,,,-99.99,,2013-02-05 12:12:00,
2013-02-05 05:21:00,25.0,19.0,-100.00,South,171,4.0,4.0,79,0.00,,,-99.99,,2013-02-05 12:21:00,
2013-02-05 05:31:00,25.0,19.0,-100.00,South,171,4.0,4.0,79,0.00,,,-99.99,,2013-02-05 12:31:00,
2013-02-05 05:41:00,25.0,19.0,-100.00,South,185,7.0,8.0,79,0.00,,,-99.99,,2013-02-05 12:41:00,
2013-02-05 05:52:00,24.0,20.0,-100.00,South,184,6.0,8.0,84,0.00,,,-99.99,,2013-02-05 12:52:00,
2013-02-05 06:01:00,24.0,20.0,-100.00,South,184,6.0,8.0,84,0.00,,,-99.99,,2013-02-05 13:01:00,
2013-02-05 06:11:00,24.0,20.0,-100.00,SSW,196,6.0,8.0,83,0.00,,,-99.99,,2013-02-05 13:11:00,
2013-02-05 06:21:00,24.0,20.0,-100.00,SSW,196,6.0,8.0,83,0.00,,,-99.99,,2013-02-05 13:21:00,
2013-02-05 06:31:00,24.0,20.0,-100.00,SSW,196,6.0,8.0,83,0.00,,,-99.99,,2013-02-05 13:31:00,
2013-02-05 06:41:00,25.0,20.0,-100.00,South,185,6.0,7.0,80,0.00,,,-99.99,,2013-02-05 13:41:00,
2013-02-05 06:52:00,25.0,20.0,-100.00,South,185,6.0,7.0,80,0.00,,,-99.99,,2013-02-05 13:52:00,
2013-02-05 07:01:00,25.0,20.0,-100.00,South,185,6.0,7.0,80,0.00,,,-99.99,,2013-02-05 14:01:00,
2013-02-05 07:12:00,25.0,20.0,-100.00,SSE,165,7.0,7.0,80,0.00,,,-99.99,,2013-02-05 14:12:00,
2013-02-05 07:21:00,25.0,20.0,-100.00,SSW,193,8.0,9.0,81,0.00,,,-99.99,,2013-02-05 14:21:00,
2013-02-05 07:31:00,25.0,20.0,-100.00,SSW,193,8.0,9.0,81,0.00,,,-99.99,,2013-02-05 14:31:00,
2013-02-05 07:41:00,25.0,20.0,-100.00,SSW,202,9.0,11.0,81,0.00,,,-99.99,,2013-02-05 14:41:00,
2013-02-05 07:52:00,25.0,20.0,-100.00,SSW,202,9.0,11.0,81,0.00,,,-99.99,,2013-02-05 14:52:00,
2013-02-05 08:01:00,25.0,20.0,-100.00,SSW,202,9.0,11.0,81,0.00,,,-99.99,,2013-02-05 15:01:00,
2013-02-05 08:11:00,25.0,20.0,-100.00,SSW,195,9.0,10.0,81,0.00,,,-99.99,,2013-02-05 15:11:00,
2013-02-05 08:21:00,26.0,21.0,-100.00,SSE,154,4.0,6.0,80,0.00,,,-99.99,,2013-02-05 15:21:00,
2013-02-05 08:32:00,26.0,21.0,-100.00,SSE,154,4.0,6.0,80,0.00,,,-99.99,,2013-02-05 15:32:00,
2013-02-05 08:42:00,25.0,20.0,-100.00,South,172,4.0,6.0,81,0.00,,,-99.99,,2013-02-05 15:42:00,
2013-02-05 08:52:00,26.0,20.0,-100.00,South,184,8.0,9.0,81,0.00,,,-99.99,,2013-02-05 15:52:00,
2013-02-05 09:01:00,26.0,20.0,-100.00,South,184,8.0,9.0,81,0.00,,,-99.99,,2013-02-05 16:01:00,
2013-02-05 09:11:00,26.0,20.0,-100.00,South,184,8.0,9.0,81,0.00,,,-99.99,,2013-02-05 16:11:00,
2013-02-05 09:22:00,26.0,20.0,-100.00,SSW,196,7.0,9.0,80,0.00,,,-99.99,,2013-02-05 16:22:00,
2013-02-05 09:32:00,26.0,20.0,-100.00,SSW,196,7.0,9.0,80,0.00,,,-99.99,,2013-02-05 16:32:00,
2013-02-05 09:42:00,26.0,20.0,-100.00,SSW,192,7.0,8.0,80,0.00,,,-99.99,,2013-02-05 16:42:00,
2013-02-05 09:52:00,26.0,20.0,-100.00,SSW,192,7.0,8.0,80,0.00,,,-99.99,,2013-02-05 16:52:00,
2013-02-05 10:01:00,26.0,20.0,-100.00,SSW,192,7.0,8.0,80,0.00,,,-99.99,,2013-02-05 17:01:00,
2013-02-05 10:11:00,26.0,20.0,-100.00,SSW,192,7.0,8.0,80,0.00,,,-99.99,,2013-02-05 17:11:00,
2013-02-05 10:21:00,28.0,21.0,-100.00,South,189,7.0,8.0,74,0.00,,,-99.99,,2013-02-05 17:21:00,
2013-02-05 10:32:00,28.0,21.0,-100.00,South,189,7.0,8.0,74,0.00,,,-99.99,,2013-02-05 17:32:00,
2013-02-05 10:42:00,29.0,21.0,-100.00,South,184,6.0,7.0,71,0.00,,,-99.99,,2013-02-05 17:42:00,
2013-02-05 10:52:00,29.0,21.0,-100.00,South,184,6.0,7.0,71,0.00,,,-99.99,,2013-02-05 17:52:00,
2013-02-05 11:01:00,29.0,21.0,-100.00,South,184,6.0,7.0,71,0.00,,,-99.99,,2013-02-05 18:01:00,
2013-02-05 11:11:00,30.0,21.0,-100.00,South,178,7.0,9.0,69,0.00,,,-99.99,,2013-02-05 18:11:00,
2013-02-05 11:21:00,31.0,21.0,-100.00,South,176,7.0,9.0,68,0.00,,,-99.99,,2013-02-05 18:21:00,
2013-02-05 11:32:00,31.0,21.0,-100.00,South,176,7.0,9.0,68,0.00,,,-99.99,,2013-02-05 18:32:00,
2013-02-05 11:42:00,32.0,22.0,-100.00,SSE,155,9.0,11.0,67,0.00,,,-99.99,,2013-02-05 18:42:00,
2013-02-05 11:52:00,32.0,22.0,-100.00,SSE,155,9.0,11.0,67,0.00,,,-99.99,,2013-02-05 18:52:00,
2013-02-05 12:02:00,32.0,22.0,-100.00,SSE,155,9.0,11.0,67,0.00,,,-99.99,,2013-02-05 19:02:00,
2013-02-05 12:11:00,33.0,22.0,-100.00,SE,145,7.0,8.0,65,0.00,,,-99.99,,2013-02-05 19:11:00,
2013-02-05 12:21:00,33.0,22.0,-100.00,SE,138,9.0,11.0,64,0.00,,,-99.99,,2013-02-05 19:21:00,
2013-02-05 12:31:00,33.0,22.0,-100.00,SE,138,9.0,11.0,64,0.00,,,-99.99,,2013-02-05 19:31:00,
2013-02-05 12:42:00,33.0,22.0,-100.00,SE,131,10.0,11.0,64,0.00,,,-99.99,,2013-02-05 19:42:00,
2013-02-05 12:52:00,34.0,22.0,-100.00,SE,136,8.0,9.0,63,0.00,,,-99.99,,2013-02-05 19:52:00,
2013-02-05 13:01:00,34.0,22.0,-100.00,SE,136,8.0,9.0,63,0.00,,,-99.99,,2013-02-05 20:01:00,
2013-02-05 13:11:00,34.0,22.0,-100.00,SE,141,7.0,10.0,61,0.00,,,-99.99,,2013-02-05 20:11:00,
2013-02-05 13:21:00,34.0,22.0,-100.00,SE,141,7.0,10.0,61,0.00,,,-99.99,,2013-02-05 20:21:00,
2013-02-05 13:31:00,34.0,22.0,-100.00,SE,141,7.0,10.0,61,0.00,,,-99.99,,2013-02-05 20:31:00,
2013-02-05 13:41:00,35.0,22.0,-100.00,SE,145,8.0,10.0,59,0.00,,,-99.99,,2013-02-05 20:41:00,
2013-02-05 13:52:00,35.0,22.0,-100.00,SE,136,7.0,9.0,59,0.00,,,-99.99,,2013-02-05 20:52:00,
2013-02-05 14:01:00,35.0,22.0,-100.00,SE,136,7.0,9.0,59,0.00,,,-99.99,,2013-02-05 21:01:00,
2013-02-05 14:11:00,37.0,22.0,-100.00,SSE,147,7.0,9.0,54,0.00,,,-99.99,,2013-02-05 21:11:00,
2013-02-05 14:21:00,37.0,22.0,-100.00,SE,138,5.0,7.0,53,0.00,,,-99.99,,2013-02-05 21:21:00,
2013-02-05 14:32:00,37.0,22.0,-100.00,SE,138,5.0,7.0,53,0.00,,,-99.99,,2013-02-05 21:32:00,
2013-02-05 14:41:00,37.0,22.0,-100.00,SE,138,5.0,7.0,53,0.00,,,-99.99,,2013-02-05 21:41:00,
2013-02-05 14:52:00,38.0,21.0,-100.00,South,171,4.0,5.0,50,0.00,,,-99.99,,2013-02-05 21:52:00,
2013-02-05 15:01:00,38.0,21.0,-100.00,South,171,4.0,5.0,50,0.00,,,-99.99,,2013-02-05 22:01:00,
2013-02-05 15:11:00,37.0,23.0,-100.00,SE,140,5.0,6.0,56,0.00,,,-99.99,,2013-02-05 22:11:00,
2013-02-05 15:21:00,37.0,23.0,-100.00,SE,140,5.0,6.0,56,0.00,,,-99.99,,2013-02-05 22:21:00,
2013-02-05 15:31:00,37.0,23.0,-100.00,SE,140,5.0,6.0,56,0.00,,,-99.99,,2013-02-05 22:31:00,
2013-02-05 15:41:00,38.0,23.0,-100.00,SSE,152,4.0,5.0,54,0.00,,,-99.99,,2013-02-05 22:41:00,
2013-02-05 15:52:00,38.0,23.0,-100.00,SSE,152,4.0,5.0,54,0.00,,,-99.99,,2013-02-05 22:52:00,
2013-02-05 16:01:00,38.0,23.0,-100.00,SSE,152,4.0,5.0,54,0.00,,,-99.99,,2013-02-05 23:01:00,
2013-02-05 16:11:00,38.0,23.0,-100.00,SE,141,5.0,6.0,54,0.00,,,-99.99,,2013-02-05 23:11:00,
2013-02-05 16:21:00,38.0,23.0,-100.00,SSE,164,5.0,6.0,53,0.00,,,-99.99,,2013-02-05 23:21:00,
2013-02-05 16:32:00,38.0,23.0,-100.00,SSE,164,5.0,6.0,53,0.00,,,-99.99,,2013-02-05 23:32:00,
2013-02-05 16:42:00,38.0,23.0,-100.00,SSE,164,5.0,6.0,53,0.00,,,-99.99,,2013-02-05 23:42:00,
2013-02-05 16:52:00,37.0,22.0,-100.00,SSE,158,9.0,10.0,55,0.00,,,-99.99,,2013-02-05 23:52:00,
2013-02-05 17:01:00,37.0,22.0,-100.00,SSE,158,9.0,10.0,55,0.00,,,-99.99,,2013-02-06 00:01:00,
2013-02-05 17:11:00,38.0,23.0,-100.00,SSE,164,5.0,7.0,54,0.00,,,-99.99,,2013-02-06 00:11:00,
2013-02-05 17:21:00,37.0,23.0,-100.00,SE,141,7.0,8.0,57,0.00,,,-99.99,,2013-02-06 00:21:00,
2013-02-05 17:32:00,37.0,23.0,-100.00,SE,141,7.0,8.0,57,0.00,,,-99.99,,2013-02-06 00:32:00,
2013-02-05 17:42:00,35.0,23.0,-100.00,SE,133,6.0,7.0,62,0.00,,,-99.99,,2013-02-06 00:42:00,
2013-02-05 17:52:00,35.0,23.0,-100.00,SE,133,6.0,7.0,62,0.00,,,-99.99,,2013-02-06 00:52:00,
2013-02-05 18:01:00,35.0,23.0,-100.00,SE,133,6.0,7.0,62,0.00,,,-99.99,,2013-02-06 01:01:00,
2013-02-05 18:11:00,34.0,23.0,-100.00,SE,134,7.0,7.0,64,0.00,,,-99.99,,2013-02-06 01:11:00,
2013-02-05 18:21:00,33.0,22.0,-100.00,SE,137,9.0,9.0,64,0.00,,,-99.99,,2013-02-06 01:21:00,
2013-02-05 18:32:00,33.0,22.0,-100.00,SE,137,9.0,9.0,64,0.00,,,-99.99,,2013-02-06 01:32:00,
2013-02-05 18:42:00,31.0,22.0,-100.00,SSW,192,4.0,6.0,68,0.00,,,-99.99,,2013-02-06 01:42:00,
2013-02-05 18:53:00,31.0,22.0,-100.00,SSW,192,4.0,6.0,68,0.00,,,-99.99,,2013-02-06 01:53:00,
2013-02-05 19:01:00,31.0,22.0,-100.00,SSW,192,4.0,6.0,68,0.00,,,-99.99,,2013-02-06 02:01:00,
2013-02-05 19:11:00,31.0,21.0,-100.00,South,188,4.0,5.0,67,0.00,,,-99.99,,2013-02-06 02:11:00,
2013-02-05 19:22:00,30.0,20.0,-100.00,South,175,5.0,5.0,68,0.00,,,-99.99,,2013-02-06 02:22:00,
2013-02-05 19:32:00,30.0,20.0,-100.00,South,175,5.0,5.0,68,0.00,,,-99.99,,2013-02-06 02:32:00,
2013-02-05 19:42:00,30.0,21.0,-100.00,South,182,7.0,8.0,69,0.00,,,-99.99,,2013-02-06 02:42:00,
2013-02-05 19:52:00,29.0,20.0,-100.00,SW,215,5.0,6.0,72,0.00,,,-99.99,,2013-02-06 02:52:00,
2013-02-05 20:02:00,29.0,20.0,-100.00,SW,215,5.0,6.0,72,0.00,,,-99.99,,2013-02-06 03:02:00,
2013-02-05 20:12:00,29.0,20.0,-100.00,SW,215,5.0,6.0,72,0.00,,,-99.99,,2013-02-06 03:12:00,
2013-02-05 20:21:00,28.0,20.0,-100.00,SSW,210,5.0,5.0,73,0.00,,,-99.99,,2013-02-06 03:21:00,
2013-02-05 20:31:00,28.0,20.0,-100.00,SSW,210,5.0,5.0,73,0.00,,,-99.99,,2013-02-06 03:31:00,
2013-02-05 20:42:00,28.0,20.0,-100.00,SSW,205,4.0,5.0,73,0.00,,,-99.99,,2013-02-06 03:42:00,
2013-02-05 20:53:00,28.0,20.0,-100.00,SSW,199,0.0,1.0,72,0.00,,,-99.99,,2013-02-06 03:53:00,
2013-02-05 21:01:00,28.0,20.0,-100.00,SSW,199,0.0,1.0,72,0.00,,,-99.99,,2013-02-06 04:01:00,
2013-02-05 21:11:00,28.0,20.0,-100.00,SSW,199,0.0,1.0,72,0.00,,,-99.99,,2013-02-06 04:11:00,
2013-02-05 21:21:00,28.0,20.0,-100.00,South,181,3.0,4.0,73,0.00,,,-99.99,,2013-02-06 04:21:00,
2013-02-05 21:31:00,28.0,20.0,-100.00,South,181,3.0,4.0,73,0.00,,,-99.99,,2013-02-06 04:31:00,
2013-02-05 21:41:00,28.0,20.0,-100.00,WSW,244,2.0,3.0,73,0.00,,,-99.99,,2013-02-06 04:41:00,
2013-02-05 21:52:00,28.0,20.0,-100.00,WSW,244,2.0,3.0,73,0.00,,,-99.99,,2013-02-06 04:52:00,
2013-02-05 22:01:00,28.0,20.0,-100.00,WSW,244,2.0,3.0,73,0.00,,,-99.99,,2013-02-06 05:01:00,
2013-02-05 22:12:00,28.0,20.0,-100.00,WSW,244,2.0,3.0,73,0.00,,,-99.99,,2013-02-06 05:12:00,
2013-02-05 22:22:00,28.0,20.0,-100.00,WSW,243,4.0,5.0,71,0.00,,,-99.99,,2013-02-06 05:22:00,
2013-02-05 22:32:00,28.0,20.0,-100.00,WSW,243,4.0,5.0,71,0.00,,,-99.99,,2013-02-06 05:32:00,
2013-02-05 22:42:00,28.0,20.0,-100.00,NNW,332,1.0,2.0,73,0.00,,,-99.99,,2013-02-06 05:42:00,
2013-02-05 22:53:00,28.0,20.0,-100.00,NNW,332,1.0,2.0,73,0.00,,,-99.99,,2013-02-06 05:53:00,
2013-02-05 23:01:00,28.0,20.0,-100.00,NNW,332,1.0,2.0,73,0.00,,,-99.99,,2013-02-06 06:01:00,
2013-02-05 23:11:00,27.0,20.0,-100.00,NE,41,2.0,2.0,73,0.00,,,-99.99,,2013-02-06 06:11:00,
2013-02-05 23:21:00,27.0,20.0,-100.00,East,82,0.0,1.0,75,0.00,,,-99.99,,2013-02-06 06:21:00,
2013-02-05 23:31:00,27.0,20.0,-100.00,East,82,0.0,1.0,75,0.00,,,-99.99,,2013-02-06 06:31:00,
2013-02-05 23:41:00,26.0,20.0,-100.00,SSE,150,5.0,6.0,77,0.00,,,-99.99,,2013-02-06 06:41:00,
2013-02-05 23:52:00,26.0,20.0,-100.00,SSE,150,5.0,6.0,77,0.00,,,-99.99,,2013-02-06 06:52:00,